Antlers, Oklahoma
Current Conditions -  °F | °C
As of 9:55 AM on Tuesday 21 Oct 2014 (Local Time) from KHHW Reporting Station
Clear Clear  
Wind Chill: 67°   Ceiling: Unl
Heat Index: 67°   Visibility: 10mi
Dew Point: 61°   Wind: 3mph
Humidity: 80%   Direction: 110°ESE
Pressure: 30.13"   Gusts: NA
Location:  34.23°N, 95.62°W
Report Text: KHHW 211455Z AUTO 11003KT 10SM CLR 20/16 A3013 RMK AO2 T01960161
Loading
Personal Weather Stations






























Interactive Weather Map
Tropical Storm Tracking
New forecast layout! Learn more

10-Day Weather Forecast

Advertisements
Track Severe Weather on mobile